sensor_id;sensor_type;location;lat;lon;timestamp;pressure;altitude;pressure_sealevel;temperature;humidity
57250;BME280;43102;52.014;-0.680;2022-09-25T00:00:00;101229;;;10.85;80.40
57250;BME280;43102;52.014;-0.680;2022-09-25T00:01:00;101231;;;10.80;80.43
57250;BME280;43102;52.014;-0.680;2022-09-25T00:02:00;101231;;;10.80;80.43
57250;BME280;43102;52.014;-0.680;2022-09-25T00:03:00;101231;;;10.80;80.43
57250;BME280;43102;52.014;-0.680;2022-09-25T00:04:00;101231;;;10.80;80.43
57250;BME280;43102;52.014;-0.680;2022-09-25T00:05:00;101231;;;10.80;80.43
57250;BME280;43102;52.014;-0.680;2022-09-25T00:06:03;101237;;;10.69;80.40
57250;BME280;43102;52.014;-0.680;2022-09-25T00:07:00;101237;;;10.69;80.40
57250;BME280;43102;52.014;-0.680;2022-09-25T00:08:00;101237;;;10.69;80.40
57250;BME280;43102;52.014;-0.680;2022-09-25T00:09:00;101237;;;10.69;80.40
57250;BME280;43102;52.014;-0.680;2022-09-25T00:10:00;101237;;;10.69;80.40
57250;BME280;43102;52.014;-0.680;2022-09-25T00:11:03;101236;;;10.67;80.52
57250;BME280;43102;52.014;-0.680;2022-09-25T00:12:00;101236;;;10.67;80.52
57250;BME280;43102;52.014;-0.680;2022-09-25T00:13:00;101236;;;10.67;80.52
57250;BME280;43102;52.014;-0.680;2022-09-25T00:14:00;101236;;;10.67;80.52
57250;BME280;43102;52.014;-0.680;2022-09-25T00:15:00;101236;;;10.67;80.52
57250;BME280;43102;52.014;-0.680;2022-09-25T00:16:00;101236;;;10.65;80.50
57250;BME280;43102;52.014;-0.680;2022-09-25T00:17:00;101236;;;10.65;80.50
57250;BME280;43102;52.014;-0.680;2022-09-25T00:18:00;101236;;;10.65;80.50
57250;BME280;43102;52.014;-0.680;2022-09-25T00:19:00;101236;;;10.65;80.50
57250;BME280;43102;52.014;-0.680;2022-09-25T00:20:00;101236;;;10.65;80.50
57250;BME280;43102;52.014;-0.680;2022-09-25T00:21:00;101240;;;10.63;80.44
57250;BME280;43102;52.014;-0.680;2022-09-25T00:22:00;101240;;;10.63;80.44
57250;BME280;43102;52.014;-0.680;2022-09-25T00:23:00;101240;;;10.63;80.44
57250;BME280;43102;52.014;-0.680;2022-09-25T00:24:00;101240;;;10.63;80.44
57250;BME280;43102;52.014;-0.680;2022-09-25T00:25:00;101240;;;10.63;80.44
57250;BME280;43102;52.014;-0.680;2022-09-25T00:26:00;101244;;;10.58;80.28
57250;BME280;43102;52.014;-0.680;2022-09-25T00:27:00;101244;;;10.58;80.28
57250;BME280;43102;52.014;-0.680;2022-09-25T00:28:00;101244;;;10.58;80.28
57250;BME280;43102;52.014;-0.680;2022-09-25T00:29:00;101244;;;10.58;80.28
57250;BME280;43102;52.014;-0.680;2022-09-25T00:30:00;101244;;;10.58;80.28
57250;BME280;43102;52.014;-0.680;2022-09-25T00:31:00;101241;;;10.47;80.28
57250;BME280;43102;52.014;-0.680;2022-09-25T00:32:00;101241;;;10.47;80.28
57250;BME280;43102;52.014;-0.680;2022-09-25T00:33:00;101241;;;10.47;80.28
57250;BME280;43102;52.014;-0.680;2022-09-25T00:34:01;101241;;;10.47;80.28
57250;BME280;43102;52.014;-0.680;2022-09-25T00:35:00;101241;;;10.47;80.28
57250;BME280;43102;52.014;-0.680;2022-09-25T00:36:01;101242;;;10.36;80.27
57250;BME280;43102;52.014;-0.680;2022-09-25T00:37:00;101242;;;10.36;80.27
57250;BME280;43102;52.014;-0.680;2022-09-25T00:38:00;101242;;;10.36;80.27
57250;BME280;43102;52.014;-0.680;2022-09-25T00:39:00;101242;;;10.36;80.27
57250;BME280;43102;52.014;-0.680;2022-09-25T00:40:00;101242;;;10.36;80.27
57250;BME280;43102;52.014;-0.680;2022-09-25T00:41:00;101245;;;10.36;80.29
57250;BME280;43102;52.014;-0.680;2022-09-25T00:42:00;101245;;;10.36;80.29
57250;BME280;43102;52.014;-0.680;2022-09-25T00:43:00;101245;;;10.36;80.29
57250;BME280;43102;52.014;-0.680;2022-09-25T00:44:00;101245;;;10.36;80.29
57250;BME280;43102;52.014;-0.680;2022-09-25T00:45:02;101245;;;10.36;80.29
57250;BME280;43102;52.014;-0.680;2022-09-25T00:46:00;101246;;;10.30;80.41
57250;BME280;43102;52.014;-0.680;2022-09-25T00:47:00;101246;;;10.30;80.41
57250;BME280;43102;52.014;-0.680;2022-09-25T00:48:01;101246;;;10.30;80.41
57250;BME280;43102;52.014;-0.680;2022-09-25T00:49:16;101246;;;10.30;80.41
57250;BME280;43102;52.014;-0.680;2022-09-25T00:50:00;101246;;;10.30;80.41
57250;BME280;43102;52.014;-0.680;2022-09-25T00:51:00;101246;;;10.29;80.54
57250;BME280;43102;52.014;-0.680;2022-09-25T00:52:04;101246;;;10.29;80.54
57250;BME280;43102;52.014;-0.680;2022-09-25T00:53:02;101246;;;10.29;80.54
57250;BME280;43102;52.014;-0.680;2022-09-25T00:54:00;101246;;;10.29;80.54
57250;BME280;43102;52.014;-0.680;2022-09-25T00:55:02;101246;;;10.29;80.54
57250;BME280;43102;52.014;-0.680;2022-09-25T00:56:00;101255;;;10.28;80.38
57250;BME280;43102;52.014;-0.680;2022-09-25T00:57:01;101255;;;10.28;80.38
57250;BME280;43102;52.014;-0.680;2022-09-25T00:58:00;101255;;;10.28;80.38
57250;BME280;43102;52.014;-0.680;2022-09-25T00:59:00;101255;;;10.28;80.38
57250;BME280;43102;52.014;-0.680;2022-09-25T01:00:04;101255;;;10.28;80.38
57250;BME280;43102;52.014;-0.680;2022-09-25T01:01:00;101255;;;10.23;80.26
57250;BME280;43102;52.014;-0.680;2022-09-25T01:02:00;101255;;;10.23;80.26
57250;BME280;43102;52.014;-0.680;2022-09-25T01:03:00;101255;;;10.23;80.26
57250;BME280;43102;52.014;-0.680;2022-09-25T01:04:00;101255;;;10.23;80.26
57250;BME280;43102;52.014;-0.680;2022-09-25T01:05:01;101255;;;10.23;80.26
57250;BME280;43102;52.014;-0.680;2022-09-25T01:06:00;101253;;;10.19;80.12
57250;BME280;43102;52.014;-0.680;2022-09-25T01:07:00;101253;;;10.19;80.12
57250;BME280;43102;52.014;-0.680;2022-09-25T01:08:00;101253;;;10.19;80.12
57250;BME280;43102;52.014;-0.680;2022-09-25T01:09:00;101253;;;10.19;80.12
57250;BME280;43102;52.014;-0.680;2022-09-25T01:10:00;101253;;;10.19;80.12
57250;BME280;43102;52.014;-0.680;2022-09-25T01:11:00;101254;;;10.14;80.09
57250;BME280;43102;52.014;-0.680;2022-09-25T01:12:00;101254;;;10.14;80.09
57250;BME280;43102;52.014;-0.680;2022-09-25T01:13:00;101254;;;10.14;80.09
57250;BME280;43102;52.014;-0.680;2022-09-25T01:14:01;101254;;;10.14;80.09
57250;BME280;43102;52.014;-0.680;2022-09-25T01:15:00;101254;;;10.14;80.09
57250;BME280;43102;52.014;-0.680;2022-09-25T01:17:01;101254;;;10.11;80.03
57250;BME280;43102;52.014;-0.680;2022-09-25T01:19:03;101254;;;10.11;80.03
57250;BME280;43102;52.014;-0.680;2022-09-25T01:20:13;101254;;;10.11;80.03
57250;BME280;43102;52.014;-0.680;2022-09-25T01:23:05;101257;;;10.03;
57250;BME280;43102;52.014;-0.680;2022-09-25T01:24:07;101257;;;10.03;80.04
57250;BME280;43102;52.014;-0.680;2022-09-25T01:26:08;101254;;;9.98;80.01
57250;BME280;43102;52.014;-0.680;2022-09-25T01:29:06;101254;;;9.98;80.01
57250;BME280;43102;52.014;-0.680;2022-09-25T01:30:16;101254;;;9.98;80.01
57250;BME280;43102;52.014;-0.680;2022-09-25T01:31:01;101253;;;9.91;79.97
57250;BME280;43102;52.014;-0.680;2022-09-25T01:32:03;101253;;;9.91;79.97
57250;BME280;43102;52.014;-0.680;2022-09-25T01:34:02;101253;;;9.91;79.97
57250;BME280;43102;52.014;-0.680;2022-09-25T01:35:03;101253;;;9.91;79.97
57250;BME280;43102;52.014;-0.680;2022-09-25T01:36:06;101247;;;9.87;79.84
57250;BME280;43102;52.014;-0.680;2022-09-25T01:37:06;101247;;;9.87;79.84
57250;BME280;43102;52.014;-0.680;2022-09-25T01:38:20;101247;;;9.87;79.84
57250;BME280;43102;52.014;-0.680;2022-09-25T01:39:19;101247;;;9.87;79.84
57250;BME280;43102;52.014;-0.680;2022-09-25T01:40:02;101247;;;9.87;79.84
57250;BME280;43102;52.014;-0.680;2022-09-25T01:41:08;101246;;;9.83;79.72
57250;BME280;43102;52.014;-0.680;2022-09-25T01:42:01;101246;;;9.83;79.72
57250;BME280;43102;52.014;-0.680;2022-09-25T01:45:02;101246;;;9.83;79.72
57250;BME280;43102;52.014;-0.680;2022-09-25T01:46:03;101250;;;9.80;79.76
57250;BME280;43102;52.014;-0.680;2022-09-25T01:47:02;101250;;;9.80;79.76
57250;BME280;43102;52.014;-0.680;2022-09-25T01:48:00;101250;;;9.80;79.76
57250;BME280;43102;52.014;-0.680;2022-09-25T01:49:02;101250;;;9.80;79.76
57250;BME280;43102;52.014;-0.680;2022-09-25T01:50:01;101250;;;9.80;79.76
57250;BME280;43102;52.014;-0.680;2022-09-25T01:51:17;101244;;;9.75;79.99
57250;BME280;43102;52.014;-0.680;2022-09-25T01:52:00;101244;;;9.75;79.99
57250;BME280;43102;52.014;-0.680;2022-09-25T01:53:01;101244;;;9.75;79.99
57250;BME280;43102;52.014;-0.680;2022-09-25T01:54:02;101244;;;9.75;79.99
57250;BME280;43102;52.014;-0.680;2022-09-25T01:55:06;101244;;;9.75;79.99
57250;BME280;43102;52.014;-0.680;2022-09-25T01:56:01;101239;;;9.69;80.02
57250;BME280;43102;52.014;-0.680;2022-09-25T01:57:18;101239;;;9.69;80.02
57250;BME280;43102;52.014;-0.680;2022-09-25T01:59:08;101239;;;9.69;80.02
57250;BME280;43102;52.014;-0.680;2022-09-25T02:02:00;101237;;;9.66;80.04
57250;BME280;43102;52.014;-0.680;2022-09-25T02:03:04;101237;;;9.66;80.04
57250;BME280;43102;52.014;-0.680;2022-09-25T02:04:02;101237;;;9.66;80.04
57250;BME280;43102;52.014;-0.680;2022-09-25T02:05:02;101237;;;9.66;80.04
57250;BME280;43102;52.014;-0.680;2022-09-25T02:06:00;101231;;;9.64;79.91
57250;BME280;43102;52.014;-0.680;2022-09-25T02:07:01;101231;;;9.64;79.91
57250;BME280;43102;52.014;-0.680;2022-09-25T02:08:01;101231;;;9.64;79.91
57250;BME280;43102;52.014;-0.680;2022-09-25T02:09:02;101231;;;9.64;79.91
57250;BME280;43102;52.014;-0.680;2022-09-25T02:10:02;101231;;;9.64;79.91
57250;BME280;43102;52.014;-0.680;2022-09-25T02:11:00;101232;;;9.62;79.88
57250;BME280;43102;52.014;-0.680;2022-09-25T02:12:03;101232;;;9.62;79.88
57250;BME280;43102;52.014;-0.680;2022-09-25T02:13:04;101232;;;9.62;79.88
57250;BME280;43102;52.014;-0.680;2022-09-25T02:14:02;101232;;;9.62;79.88
57250;BME280;43102;52.014;-0.680;2022-09-25T02:15:01;101232;;;9.62;79.88
57250;BME280;43102;52.014;-0.680;2022-09-25T02:16:01;101225;;;9.55;79.59
57250;BME280;43102;52.014;-0.680;2022-09-25T02:17:00;101225;;;9.55;79.59
57250;BME280;43102;52.014;-0.680;2022-09-25T02:18:02;101225;;;9.55;79.59
57250;BME280;43102;52.014;-0.680;2022-09-25T02:19:00;101225;;;9.55;79.59
57250;BME280;43102;52.014;-0.680;2022-09-25T02:20:00;101225;;;9.55;79.59
57250;BME280;43102;52.014;-0.680;2022-09-25T02:21:01;101230;;;9.48;79.81
57250;BME280;43102;52.014;-0.680;2022-09-25T02:22:16;101230;;;9.48;79.81
57250;BME280;43102;52.014;-0.680;2022-09-25T02:23:04;101230;;;9.48;79.81
57250;BME280;43102;52.014;-0.680;2022-09-25T02:24:04;101230;;;9.48;79.81
57250;BME280;43102;52.014;-0.680;2022-09-25T02:25:05;101230;;;9.48;79.81
57250;BME280;43102;52.014;-0.680;2022-09-25T02:26:04;101224;;;9.44;79.74
57250;BME280;43102;52.014;-0.680;2022-09-25T02:27:00;101224;;;9.44;79.74
57250;BME280;43102;52.014;-0.680;2022-09-25T02:28:00;101224;;;9.44;79.74
57250;BME280;43102;52.014;-0.680;2022-09-25T02:29:00;101224;;;9.44;79.74
57250;BME280;43102;52.014;-0.680;2022-09-25T02:30:00;101224;;;9.44;79.74
57250;BME280;43102;52.014;-0.680;2022-09-25T02:31:00;101226;;;9.40;79.71
57250;BME280;43102;52.014;-0.680;2022-09-25T02:32:04;101226;;;9.40;79.71
57250;BME280;43102;52.014;-0.680;2022-09-25T02:33:00;101226;;;9.40;79.71
57250;BME280;43102;52.014;-0.680;2022-09-25T02:34:00;101226;;;9.40;79.71
57250;BME280;43102;52.014;-0.680;2022-09-25T02:35:00;101226;;;9.40;79.71
57250;BME280;43102;52.014;-0.680;2022-09-25T02:36:00;101236;;;9.37;79.71
57250;BME280;43102;52.014;-0.680;2022-09-25T02:37:00;101236;;;9.37;79.71
57250;BME280;43102;52.014;-0.680;2022-09-25T02:38:00;101236;;;9.37;79.71
57250;BME280;43102;52.014;-0.680;2022-09-25T02:39:00;101236;;;9.37;79.71
57250;BME280;43102;52.014;-0.680;2022-09-25T02:40:00;101236;;;9.37;79.71
57250;BME280;43102;52.014;-0.680;2022-09-25T02:41:02;101238;;;9.30;79.61
57250;BME280;43102;52.014;-0.680;2022-09-25T02:47:07;101238;;;9.26;79.58
57250;BME280;43102;52.014;-0.680;2022-09-25T02:49:06;101238;;;9.26;79.58
57250;BME280;43102;52.014;-0.680;2022-09-25T02:51:09;101238;;;9.20;79.85
57250;BME280;43102;52.014;-0.680;2022-09-25T02:55:04;101238;;;9.20;79.85
57250;BME280;43102;52.014;-0.680;2022-09-25T02:56:04;101240;;;9.21;79.98
57250;BME280;43102;52.014;-0.680;2022-09-25T02:57:01;101240;;;9.21;79.98
57250;BME280;43102;52.014;-0.680;2022-09-25T02:59:02;101240;;;9.21;79.98
57250;BME280;43102;52.014;-0.680;2022-09-25T03:00:00;101240;;;9.21;79.98
57250;BME280;43102;52.014;-0.680;2022-09-25T03:01:00;101242;;;9.21;80.07
57250;BME280;43102;52.014;-0.680;2022-09-25T03:02:00;101242;;;9.21;80.07
57250;BME280;43102;52.014;-0.680;2022-09-25T03:03:00;101242;;;9.21;80.07
57250;BME280;43102;52.014;-0.680;2022-09-25T03:04:00;101242;;;9.21;80.07
57250;BME280;43102;52.014;-0.680;2022-09-25T03:05:00;101242;;;9.21;80.07
57250;BME280;43102;52.014;-0.680;2022-09-25T03:06:00;101247;;;9.17;80.29
57250;BME280;43102;52.014;-0.680;2022-09-25T03:07:00;101247;;;9.17;80.29
57250;BME280;43102;52.014;-0.680;2022-09-25T03:08:00;101247;;;9.17;80.29
57250;BME280;43102;52.014;-0.680;2022-09-25T03:09:00;101247;;;9.17;80.29
57250;BME280;43102;52.014;-0.680;2022-09-25T03:10:00;101247;;;9.17;80.29
57250;BME280;43102;52.014;-0.680;2022-09-25T03:11:00;101240;;;9.17;80.49
57250;BME280;43102;52.014;-0.680;2022-09-25T03:12:00;101240;;;9.17;80.49
57250;BME280;43102;52.014;-0.680;2022-09-25T03:13:17;101240;;;9.17;80.49
57250;BME280;43102;52.014;-0.680;2022-09-25T03:14:01;101240;;;9.17;80.49
57250;BME280;43102;52.014;-0.680;2022-09-25T03:15:00;101240;;;9.17;80.49
57250;BME280;43102;52.014;-0.680;2022-09-25T03:17:00;101236;;;9.16;80.71
57250;BME280;43102;52.014;-0.680;2022-09-25T03:18:00;101236;;;9.16;80.71
57250;BME280;43102;52.014;-0.680;2022-09-25T03:19:00;101236;;;9.16;80.71
57250;BME280;43102;52.014;-0.680;2022-09-25T03:20:00;101236;;;9.16;80.71
57250;BME280;43102;52.014;-0.680;2022-09-25T03:21:00;101237;;;9.11;81.24
57250;BME280;43102;52.014;-0.680;2022-09-25T03:22:00;101237;;;9.11;81.24
57250;BME280;43102;52.014;-0.680;2022-09-25T03:23:00;101237;;;9.11;81.24
57250;BME280;43102;52.014;-0.680;2022-09-25T03:24:00;101237;;;9.11;81.24
57250;BME280;43102;52.014;-0.680;2022-09-25T03:25:00;101237;;;9.11;81.24
57250;BME280;43102;52.014;-0.680;2022-09-25T03:26:00;101233;;;9.12;81.10
57250;BME280;43102;52.014;-0.680;2022-09-25T03:27:00;101233;;;9.12;81.10
57250;BME280;43102;52.014;-0.680;2022-09-25T03:28:00;101233;;;9.12;81.10
57250;BME280;43102;52.014;-0.680;2022-09-25T03:29:00;101233;;;9.12;81.10
57250;BME280;43102;52.014;-0.680;2022-09-25T03:30:00;101233;;;9.12;81.10
57250;BME280;43102;52.014;-0.680;2022-09-25T03:31:01;101238;;;9.12;81.10
57250;BME280;43102;52.014;-0.680;2022-09-25T03:32:00;101238;;;9.12;81.10
57250;BME280;43102;52.014;-0.680;2022-09-25T03:33:00;101238;;;9.12;81.10
57250;BME280;43102;52.014;-0.680;2022-09-25T03:34:00;101238;;;9.12;81.10
57250;BME280;43102;52.014;-0.680;2022-09-25T03:35:00;101238;;;9.12;81.10
57250;BME280;43102;52.014;-0.680;2022-09-25T03:36:02;101236;;;9.10;81.05
57250;BME280;43102;52.014;-0.680;2022-09-25T03:37:00;101236;;;9.10;81.05
57250;BME280;43102;52.014;-0.680;2022-09-25T03:38:00;101236;;;9.10;81.05
57250;BME280;43102;52.014;-0.680;2022-09-25T03:39:00;101236;;;9.10;81.05
57250;BME280;43102;52.014;-0.680;2022-09-25T03:40:00;101236;;;9.10;81.05
57250;BME280;43102;52.014;-0.680;2022-09-25T03:41:00;101236;;;9.10;81.05
57250;BME280;43102;52.014;-0.680;2022-09-25T03:42:00;101236;;;9.10;81.05
57250;BME280;43102;52.014;-0.680;2022-09-25T03:43:00;101236;;;9.10;81.05
57250;BME280;43102;52.014;-0.680;2022-09-25T03:44:00;101236;;;9.10;81.05
57250;BME280;43102;52.014;-0.680;2022-09-25T03:45:00;101236;;;9.10;81.05
57250;BME280;43102;52.014;-0.680;2022-09-25T03:46:00;101235;;;9.08;80.96
57250;BME280;43102;52.014;-0.680;2022-09-25T03:47:00;101235;;;9.08;80.96
57250;BME280;43102;52.014;-0.680;2022-09-25T03:48:00;101235;;;9.08;80.96
57250;BME280;43102;52.014;-0.680;2022-09-25T03:49:00;101235;;;9.08;80.96
57250;BME280;43102;52.014;-0.680;2022-09-25T03:50:00;101235;;;9.08;80.96
57250;BME280;43102;52.014;-0.680;2022-09-25T03:51:00;101239;;;9.03;81.14
57250;BME280;43102;52.014;-0.680;2022-09-25T03:52:00;101239;;;9.03;81.14
57250;BME280;43102;52.014;-0.680;2022-09-25T03:53:00;101239;;;9.03;81.14
57250;BME280;43102;52.014;-0.680;2022-09-25T03:54:00;101239;;;9.03;81.14
57250;BME280;43102;52.014;-0.680;2022-09-25T03:55:00;101239;;;9.03;81.14
57250;BME280;43102;52.014;-0.680;2022-09-25T03:56:00;101236;;;9.00;81.12
57250;BME280;43102;52.014;-0.680;2022-09-25T03:57:00;101236;;;9.00;81.12
57250;BME280;43102;52.014;-0.680;2022-09-25T03:58:01;101236;;;9.00;81.12
57250;BME280;43102;52.014;-0.680;2022-09-25T03:59:00;101236;;;9.00;81.12
57250;BME280;43102;52.014;-0.680;2022-09-25T04:00:00;101236;;;9.00;81.12
57250;BME280;43102;52.014;-0.680;2022-09-25T04:01:00;101233;;;8.95;80.96
57250;BME280;43102;52.014;-0.680;2022-09-25T04:02:00;101233;;;8.95;80.96
57250;BME280;43102;52.014;-0.680;2022-09-25T04:03:00;101233;;;8.95;80.96
57250;BME280;43102;52.014;-0.680;2022-09-25T04:04:00;101233;;;8.95;80.96
57250;BME280;43102;52.014;-0.680;2022-09-25T04:05:00;101233;;;8.95;80.96
57250;BME280;43102;52.014;-0.680;2022-09-25T04:06:00;101223;;;8.88;80.90
57250;BME280;43102;52.014;-0.680;2022-09-25T04:07:00;101223;;;8.88;80.90
57250;BME280;43102;52.014;-0.680;2022-09-25T04:08:00;101223;;;8.88;80.90
57250;BME280;43102;52.014;-0.680;2022-09-25T04:09:00;101223;;;8.88;80.90
57250;BME280;43102;52.014;-0.680;2022-09-25T04:10:00;101223;;;8.88;80.90
57250;BME280;43102;52.014;-0.680;2022-09-25T04:11:00;101214;;;8.85;80.75
57250;BME280;43102;52.014;-0.680;2022-09-25T04:12:00;101214;;;8.85;80.75
57250;BME280;43102;52.014;-0.680;2022-09-25T04:13:00;101214;;;8.85;80.75
57250;BME280;43102;52.014;-0.680;2022-09-25T04:14:00;101214;;;8.85;80.75
57250;BME280;43102;52.014;-0.680;2022-09-25T04:15:00;101214;;;8.85;80.75
57250;BME280;43102;52.014;-0.680;2022-09-25T04:16:00;101218;;;8.79;80.65
57250;BME280;43102;52.014;-0.680;2022-09-25T04:17:00;101218;;;8.79;80.65
57250;BME280;43102;52.014;-0.680;2022-09-25T04:18:00;101218;;;8.79;80.65
57250;BME280;43102;52.014;-0.680;2022-09-25T04:19:00;101218;;;8.79;80.65
57250;BME280;43102;52.014;-0.680;2022-09-25T04:20:00;101218;;;8.79;80.65
57250;BME280;43102;52.014;-0.680;2022-09-25T04:21:00;101215;;;8.72;80.61
57250;BME280;43102;52.014;-0.680;2022-09-25T04:22:00;101215;;;8.72;80.61
57250;BME280;43102;52.014;-0.680;2022-09-25T04:23:00;101215;;;8.72;80.61
57250;BME280;43102;52.014;-0.680;2022-09-25T04:24:00;101215;;;8.72;80.61
57250;BME280;43102;52.014;-0.680;2022-09-25T04:25:00;101215;;;8.72;80.61
57250;BME280;43102;52.014;-0.680;2022-09-25T04:26:00;101215;;;8.67;80.59
57250;BME280;43102;52.014;-0.680;2022-09-25T04:27:00;101215;;;8.67;80.59
57250;BME280;43102;52.014;-0.680;2022-09-25T04:28:00;101215;;;8.67;80.59
57250;BME280;43102;52.014;-0.680;2022-09-25T04:29:00;101215;;;8.67;80.59
57250;BME280;43102;52.014;-0.680;2022-09-25T04:30:00;101215;;;8.67;80.59
57250;BME280;43102;52.014;-0.680;2022-09-25T04:31:00;101211;;;8.62;80.40
57250;BME280;43102;52.014;-0.680;2022-09-25T04:32:00;101211;;;8.62;80.40
57250;BME280;43102;52.014;-0.680;2022-09-25T04:33:00;101211;;;8.62;80.40
57250;BME280;43102;52.014;-0.680;2022-09-25T04:34:00;101211;;;8.62;80.40
57250;BME280;43102;52.014;-0.680;2022-09-25T04:35:00;101211;;;8.62;80.40
57250;BME280;43102;52.014;-0.680;2022-09-25T04:36:00;101204;;;8.59;80.34
57250;BME280;43102;52.014;-0.680;2022-09-25T04:37:00;101204;;;8.59;80.34
57250;BME280;43102;52.014;-0.680;2022-09-25T04:38:00;101204;;;8.59;80.34
57250;BME280;43102;52.014;-0.680;2022-09-25T04:39:00;101204;;;8.59;80.34
57250;BME280;43102;52.014;-0.680;2022-09-25T04:40:00;101204;;;8.59;80.34
57250;BME280;43102;52.014;-0.680;2022-09-25T04:41:00;101202;;;8.54;80.23
57250;BME280;43102;52.014;-0.680;2022-09-25T04:42:00;101202;;;8.54;80.23
57250;BME280;43102;52.014;-0.680;2022-09-25T04:43:00;101202;;;8.54;80.23
57250;BME280;43102;52.014;-0.680;2022-09-25T04:44:03;101202;;;8.54;80.23
57250;BME280;43102;52.014;-0.680;2022-09-25T04:45:00;101202;;;8.54;80.23
57250;BME280;43102;52.014;-0.680;2022-09-25T04:46:00;101204;;;8.49;80.13
57250;BME280;43102;52.014;-0.680;2022-09-25T04:47:00;101204;;;8.49;80.13
57250;BME280;43102;52.014;-0.680;2022-09-25T04:48:00;101204;;;8.49;80.13
57250;BME280;43102;52.014;-0.680;2022-09-25T04:49:00;101204;;;8.49;80.13
57250;BME280;43102;52.014;-0.680;2022-09-25T04:50:00;101204;;;8.49;80.13
57250;BME280;43102;52.014;-0.680;2022-09-25T04:51:00;101203;;;8.40;80.21
57250;BME280;43102;52.014;-0.680;2022-09-25T04:52:00;101203;;;8.40;80.21
57250;BME280;43102;52.014;-0.680;2022-09-25T04:53:00;101203;;;8.40;80.21
57250;BME280;43102;52.014;-0.680;2022-09-25T04:54:00;101203;;;8.40;80.21
57250;BME280;43102;52.014;-0.680;2022-09-25T04:55:00;101203;;;8.40;80.21
57250;BME280;43102;52.014;-0.680;2022-09-25T04:56:00;101200;;;8.39;80.30
57250;BME280;43102;52.014;-0.680;2022-09-25T04:57:00;101200;;;8.39;80.30
57250;BME280;43102;52.014;-0.680;2022-09-25T04:58:00;101200;;;8.39;80.30
57250;BME280;43102;52.014;-0.680;2022-09-25T04:59:00;101200;;;8.39;80.30
57250;BME280;43102;52.014;-0.680;2022-09-25T05:00:00;101200;;;8.39;80.30
57250;BME280;43102;52.014;-0.680;2022-09-25T05:01:02;101201;;;8.35;80.28
57250;BME280;43102;52.014;-0.680;2022-09-25T05:02:00;101201;;;8.35;80.28
57250;BME280;43102;52.014;-0.680;2022-09-25T05:03:01;101201;;;8.35;80.28
57250;BME280;43102;52.014;-0.680;2022-09-25T05:04:00;101201;;;8.35;80.28
57250;BME280;43102;52.014;-0.680;2022-09-25T05:05:00;101201;;;8.35;80.28
57250;BME280;43102;52.014;-0.680;2022-09-25T05:06:00;101193;;;8.31;80.26
57250;BME280;43102;52.014;-0.680;2022-09-25T05:07:00;101193;;;8.31;80.26
57250;BME280;43102;52.014;-0.680;2022-09-25T05:08:00;101193;;;8.31;80.26
57250;BME280;43102;52.014;-0.680;2022-09-25T05:09:00;101193;;;8.31;80.26
57250;BME280;43102;52.014;-0.680;2022-09-25T05:10:00;101193;;;8.31;80.26
57250;BME280;43102;52.014;-0.680;2022-09-25T05:11:00;101193;;;8.25;80.17
57250;BME280;43102;52.014;-0.680;2022-09-25T05:12:00;101193;;;8.25;80.17
57250;BME280;43102;52.014;-0.680;2022-09-25T05:13:00;101193;;;8.25;80.17
57250;BME280;43102;52.014;-0.680;2022-09-25T05:14:00;101193;;;8.25;80.17
57250;BME280;43102;52.014;-0.680;2022-09-25T05:15:00;101193;;;8.25;80.17
57250;BME280;43102;52.014;-0.680;2022-09-25T05:16:00;101194;;;8.20;80.07
57250;BME280;43102;52.014;-0.680;2022-09-25T05:17:00;101194;;;8.20;80.07
57250;BME280;43102;52.014;-0.680;2022-09-25T05:18:16;101194;;;8.20;80.07
57250;BME280;43102;52.014;-0.680;2022-09-25T05:19:00;101194;;;8.20;80.07
57250;BME280;43102;52.014;-0.680;2022-09-25T05:20:00;101194;;;8.20;80.07
57250;BME280;43102;52.014;-0.680;2022-09-25T05:21:02;101199;;;8.12;80.00
57250;BME280;43102;52.014;-0.680;2022-09-25T05:22:00;101199;;;8.12;80.00
57250;BME280;43102;52.014;-0.680;2022-09-25T05:23:00;101199;;;8.12;80.00
57250;BME280;43102;52.014;-0.680;2022-09-25T05:24:00;101199;;;8.12;80.00
57250;BME280;43102;52.014;-0.680;2022-09-25T05:25:00;101199;;;8.12;80.00
57250;BME280;43102;52.014;-0.680;2022-09-25T05:26:00;101192;;;8.04;79.87
57250;BME280;43102;52.014;-0.680;2022-09-25T05:27:00;101192;;;8.04;79.87
57250;BME280;43102;52.014;-0.680;2022-09-25T05:28:00;101192;;;8.04;79.87
57250;BME280;43102;52.014;-0.680;2022-09-25T05:29:00;101192;;;8.04;79.87
57250;BME280;43102;52.014;-0.680;2022-09-25T05:30:00;101192;;;8.04;79.87
57250;BME280;43102;52.014;-0.680;2022-09-25T05:31:00;101192;;;7.99;79.75
57250;BME280;43102;52.014;-0.680;2022-09-25T05:32:00;101192;;;7.99;79.75
57250;BME280;43102;52.014;-0.680;2022-09-25T05:33:00;101192;;;7.99;79.75
57250;BME280;43102;52.014;-0.680;2022-09-25T05:34:00;101192;;;7.99;79.75
57250;BME280;43102;52.014;-0.680;2022-09-25T05:35:00;101192;;;7.99;79.75
57250;BME280;43102;52.014;-0.680;2022-09-25T05:36:01;101202;;;7.94;79.62
57250;BME280;43102;52.014;-0.680;2022-09-25T05:37:00;101202;;;7.94;79.62
57250;BME280;43102;52.014;-0.680;2022-09-25T05:38:00;101202;;;7.94;79.62
57250;BME280;43102;52.014;-0.680;2022-09-25T05:39:00;101202;;;7.94;79.62
57250;BME280;43102;52.014;-0.680;2022-09-25T05:40:00;101202;;;7.94;79.62
57250;BME280;43102;52.014;-0.680;2022-09-25T05:41:01;101206;;;7.90;79.48
57250;BME280;43102;52.014;-0.680;2022-09-25T05:42:00;101206;;;7.90;79.48
57250;BME280;43102;52.014;-0.680;2022-09-25T05:43:01;101206;;;7.90;79.48
57250;BME280;43102;52.014;-0.680;2022-09-25T05:44:00;101206;;;7.90;79.48
57250;BME280;43102;52.014;-0.680;2022-09-25T05:45:00;101206;;;7.90;79.48
57250;BME280;43102;52.014;-0.680;2022-09-25T05:46:00;101207;;;7.82;79.39
57250;BME280;43102;52.014;-0.680;2022-09-25T05:47:00;101207;;;7.82;79.39
57250;BME280;43102;52.014;-0.680;2022-09-25T05:48:00;101207;;;7.82;79.39
57250;BME280;43102;52.014;-0.680;2022-09-25T05:49:00;101207;;;7.82;79.39
57250;BME280;43102;52.014;-0.680;2022-09-25T05:50:00;101207;;;7.82;79.39